sensor_id;sensor_type;location;lat;lon;timestamp;P1;durP1;ratioP1;P2;durP2;ratioP2
24153;SDS011;12312;53.362;-1.518;2023-01-05T00:01:05;9.90;;;3.67;;
24153;SDS011;12312;53.362;-1.518;2023-01-05T00:03:35;11.70;;;3.95;;
24153;SDS011;12312;53.362;-1.518;2023-01-05T00:08:32;10.00;;;3.50;;
24153;SDS011;12312;53.362;-1.518;2023-01-05T00:11:05;17.25;;;2.95;;
24153;SDS011;12312;53.362;-1.518;2023-01-05T00:13:53;12.63;;;2.97;;
24153;SDS011;12312;53.362;-1.518;2023-01-05T00:16:37;14.63;;;3.10;;
24153;SDS011;12312;53.362;-1.518;2023-01-05T00:19:21;14.68;;;3.28;;
24153;SDS011;12312;53.362;-1.518;2023-01-05T00:22:24;11.40;;;3.10;;
24153;SDS011;12312;53.362;-1.518;2023-01-05T00:27:28;14.30;;;3.03;;
24153;SDS011;12312;53.362;-1.518;2023-01-05T00:29:55;7.35;;;2.47;;
24153;SDS011;12312;53.362;-1.518;2023-01-05T00:32:21;14.05;;;2.13;;
24153;SDS011;12312;53.362;-1.518;2023-01-05T00:34:48;11.27;;;2.45;;
24153;SDS011;12312;53.362;-1.518;2023-01-05T00:37:15;9.70;;;2.38;;
24153;SDS011;12312;53.362;-1.518;2023-01-05T00:39:43;12.38;;;2.55;;
24153;SDS011;12312;53.362;-1.518;2023-01-05T00:42:09;14.55;;;2.80;;
24153;SDS011;12312;53.362;-1.518;2023-01-05T00:44:34;19.50;;;5.68;;
24153;SDS011;12312;53.362;-1.518;2023-01-05T00:47:00;9.38;;;1.70;;
24153;SDS011;12312;53.362;-1.518;2023-01-05T00:49:25;12.32;;;2.65;;
24153;SDS011;12312;53.362;-1.518;2023-01-05T00:51:51;14.25;;;2.65;;
24153;SDS011;12312;53.362;-1.518;2023-01-05T00:54:16;15.75;;;4.55;;
24153;SDS011;12312;53.362;-1.518;2023-01-05T00:56:42;9.25;;;1.80;;
24153;SDS011;12312;53.362;-1.518;2023-01-05T00:59:08;16.15;;;4.28;;
24153;SDS011;12312;53.362;-1.518;2023-01-05T01:01:34;9.52;;;2.17;;
24153;SDS011;12312;53.362;-1.518;2023-01-05T01:04:00;13.77;;;2.33;;
24153;SDS011;12312;53.362;-1.518;2023-01-05T01:06:26;13.15;;;2.58;;
24153;SDS011;12312;53.362;-1.518;2023-01-05T01:08:52;12.35;;;2.28;;
24153;SDS011;12312;53.362;-1.518;2023-01-05T01:11:17;12.48;;;2.40;;
24153;SDS011;12312;53.362;-1.518;2023-01-05T01:13:43;13.00;;;2.38;;
24153;SDS011;12312;53.362;-1.518;2023-01-05T01:16:10;13.20;;;2.00;;
24153;SDS011;12312;53.362;-1.518;2023-01-05T01:18:39;12.30;;;2.25;;
24153;SDS011;12312;53.362;-1.518;2023-01-05T01:21:05;10.10;;;2.03;;
24153;SDS011;12312;53.362;-1.518;2023-01-05T01:23:31;20.73;;;2.30;;
24153;SDS011;12312;53.362;-1.518;2023-01-05T01:25:58;11.10;;;2.03;;
24153;SDS011;12312;53.362;-1.518;2023-01-05T01:28:28;11.95;;;2.60;;
24153;SDS011;12312;53.362;-1.518;2023-01-05T01:30:55;14.30;;;2.22;;
24153;SDS011;12312;53.362;-1.518;2023-01-05T01:33:22;13.60;;;2.10;;
24153;SDS011;12312;53.362;-1.518;2023-01-05T01:35:48;16.08;;;3.35;;
24153;SDS011;12312;53.362;-1.518;2023-01-05T01:38:14;16.58;;;2.63;;
24153;SDS011;12312;53.362;-1.518;2023-01-05T01:40:40;12.95;;;2.55;;
24153;SDS011;12312;53.362;-1.518;2023-01-05T01:46:04;18.73;;;2.55;;
24153;SDS011;12312;53.362;-1.518;2023-01-05T01:48:30;11.07;;;1.77;;
24153;SDS011;12312;53.362;-1.518;2023-01-05T01:50:57;20.38;;;2.20;;
24153;SDS011;12312;53.362;-1.518;2023-01-05T01:53:33;10.65;;;1.73;;
24153;SDS011;12312;53.362;-1.518;2023-01-05T01:56:02;10.18;;;1.88;;
24153;SDS011;12312;53.362;-1.518;2023-01-05T01:58:31;12.45;;;1.65;;
24153;SDS011;12312;53.362;-1.518;2023-01-05T02:00:57;9.57;;;1.63;;
24153;SDS011;12312;53.362;-1.518;2023-01-05T02:03:27;13.93;;;2.08;;
24153;SDS011;12312;53.362;-1.518;2023-01-05T02:05:54;8.07;;;1.60;;
24153;SDS011;12312;53.362;-1.518;2023-01-05T02:08:23;11.13;;;1.88;;
24153;SDS011;12312;53.362;-1.518;2023-01-05T02:14:00;8.85;;;1.95;;
24153;SDS011;12312;53.362;-1.518;2023-01-05T02:25:20;9.23;;;1.55;;
24153;SDS011;12312;53.362;-1.518;2023-01-05T02:33:25;8.45;;;1.83;;
24153;SDS011;12312;53.362;-1.518;2023-01-05T02:41:23;11.85;;;2.03;;
24153;SDS011;12312;53.362;-1.518;2023-01-05T02:44:01;12.60;;;2.00;;
24153;SDS011;12312;53.362;-1.518;2023-01-05T02:46:27;14.85;;;2.67;;
24153;SDS011;12312;53.362;-1.518;2023-01-05T02:48:53;14.20;;;2.42;;
24153;SDS011;12312;53.362;-1.518;2023-01-05T02:51:24;14.43;;;2.42;;
24153;SDS011;12312;53.362;-1.518;2023-01-05T02:53:58;14.20;;;2.08;;
24153;SDS011;12312;53.362;-1.518;2023-01-05T02:56:33;10.52;;;2.22;;
24153;SDS011;12312;53.362;-1.518;2023-01-05T02:59:08;18.65;;;2.70;;
24153;SDS011;12312;53.362;-1.518;2023-01-05T03:01:42;14.13;;;3.28;;
24153;SDS011;12312;53.362;-1.518;2023-01-05T03:04:48;13.95;;;2.38;;
24153;SDS011;12312;53.362;-1.518;2023-01-05T03:07:20;8.05;;;1.70;;
24153;SDS011;12312;53.362;-1.518;2023-01-05T03:09:50;10.75;;;2.10;;
24153;SDS011;12312;53.362;-1.518;2023-01-05T03:12:32;10.40;;;2.20;;
24153;SDS011;12312;53.362;-1.518;2023-01-05T03:15:23;8.77;;;2.00;;
24153;SDS011;12312;53.362;-1.518;2023-01-05T03:17:53;12.00;;;2.35;;
24153;SDS011;12312;53.362;-1.518;2023-01-05T03:20:23;10.98;;;1.70;;
24153;SDS011;12312;53.362;-1.518;2023-01-05T03:22:52;11.70;;;2.17;;
24153;SDS011;12312;53.362;-1.518;2023-01-05T03:25:39;16.13;;;2.58;;
24153;SDS011;12312;53.362;-1.518;2023-01-05T03:28:26;12.10;;;2.53;;
24153;SDS011;12312;53.362;-1.518;2023-01-05T03:37:25;15.90;;;2.90;;
24153;SDS011;12312;53.362;-1.518;2023-01-05T03:39:58;9.40;;;2.28;;
24153;SDS011;12312;53.362;-1.518;2023-01-05T03:42:27;13.40;;;1.95;;
24153;SDS011;12312;53.362;-1.518;2023-01-05T03:44:54;14.15;;;2.75;;
24153;SDS011;12312;53.362;-1.518;2023-01-05T03:47:19;12.18;;;2.28;;
24153;SDS011;12312;53.362;-1.518;2023-01-05T03:49:47;11.13;;;2.35;;
24153;SDS011;12312;53.362;-1.518;2023-01-05T03:52:13;15.50;;;4.10;;
24153;SDS011;12312;53.362;-1.518;2023-01-05T03:54:39;15.43;;;2.88;;
24153;SDS011;12312;53.362;-1.518;2023-01-05T03:57:05;8.02;;;2.00;;
24153;SDS011;12312;53.362;-1.518;2023-01-05T03:59:31;12.50;;;1.77;;
24153;SDS011;12312;53.362;-1.518;2023-01-05T04:01:57;12.90;;;2.38;;
24153;SDS011;12312;53.362;-1.518;2023-01-05T04:04:24;8.75;;;1.98;;
24153;SDS011;12312;53.362;-1.518;2023-01-05T04:06:49;9.60;;;2.05;;
24153;SDS011;12312;53.362;-1.518;2023-01-05T04:09:15;11.27;;;2.83;;
24153;SDS011;12312;53.362;-1.518;2023-01-05T04:11:40;14.35;;;2.35;;
24153;SDS011;12312;53.362;-1.518;2023-01-05T04:14:06;12.57;;;2.42;;
24153;SDS011;12312;53.362;-1.518;2023-01-05T04:16:31;8.57;;;2.45;;
24153;SDS011;12312;53.362;-1.518;2023-01-05T04:18:58;7.38;;;1.50;;
24153;SDS011;12312;53.362;-1.518;2023-01-05T04:21:24;7.78;;;1.98;;
24153;SDS011;12312;53.362;-1.518;2023-01-05T04:23:49;15.05;;;2.33;;
24153;SDS011;12312;53.362;-1.518;2023-01-05T04:26:15;8.82;;;2.63;;
24153;SDS011;12312;53.362;-1.518;2023-01-05T04:28:43;9.85;;;2.30;;
24153;SDS011;12312;53.362;-1.518;2023-01-05T04:31:09;9.48;;;1.67;;
24153;SDS011;12312;53.362;-1.518;2023-01-05T04:33:34;9.00;;;2.05;;
24153;SDS011;12312;53.362;-1.518;2023-01-05T04:36:03;12.68;;;2.42;;
24153;SDS011;12312;53.362;-1.518;2023-01-05T04:38:29;14.57;;;2.40;;
24153;SDS011;12312;53.362;-1.518;2023-01-05T04:40:55;7.60;;;2.42;;
24153;SDS011;12312;53.362;-1.518;2023-01-05T04:43:22;5.88;;;2.35;;
24153;SDS011;12312;53.362;-1.518;2023-01-05T04:45:48;11.25;;;2.47;;
24153;SDS011;12312;53.362;-1.518;2023-01-05T04:48:14;12.55;;;3.42;;
24153;SDS011;12312;53.362;-1.518;2023-01-05T04:50:41;10.70;;;3.00;;
24153;SDS011;12312;53.362;-1.518;2023-01-05T04:53:06;12.15;;;2.97;;
24153;SDS011;12312;53.362;-1.518;2023-01-05T04:55:33;8.02;;;2.70;;
24153;SDS011;12312;53.362;-1.518;2023-01-05T04:57:58;11.55;;;2.67;;
24153;SDS011;12312;53.362;-1.518;2023-01-05T05:00:24;16.05;;;3.22;;
24153;SDS011;12312;53.362;-1.518;2023-01-05T05:02:49;11.23;;;2.78;;
24153;SDS011;12312;53.362;-1.518;2023-01-05T05:05:15;11.40;;;3.30;;
24153;SDS011;12312;53.362;-1.518;2023-01-05T05:07:41;12.60;;;2.60;;
24153;SDS011;12312;53.362;-1.518;2023-01-05T05:10:07;13.90;;;2.53;;
24153;SDS011;12312;53.362;-1.518;2023-01-05T05:12:35;11.65;;;2.97;;
24153;SDS011;12312;53.362;-1.518;2023-01-05T05:15:01;11.77;;;3.22;;
24153;SDS011;12312;53.362;-1.518;2023-01-05T05:17:26;14.38;;;2.70;;
24153;SDS011;12312;53.362;-1.518;2023-01-05T05:19:52;15.85;;;2.95;;
24153;SDS011;12312;53.362;-1.518;2023-01-05T05:22:17;14.50;;;2.92;;
24153;SDS011;12312;53.362;-1.518;2023-01-05T05:24:43;10.48;;;2.30;;
24153;SDS011;12312;53.362;-1.518;2023-01-05T05:27:08;12.32;;;2.60;;
24153;SDS011;12312;53.362;-1.518;2023-01-05T05:29:34;9.52;;;2.35;;
24153;SDS011;12312;53.362;-1.518;2023-01-05T05:32:00;17.23;;;2.65;;
24153;SDS011;12312;53.362;-1.518;2023-01-05T05:34:25;13.65;;;2.22;;
24153;SDS011;12312;53.362;-1.518;2023-01-05T05:36:51;10.85;;;2.63;;
24153;SDS011;12312;53.362;-1.518;2023-01-05T05:39:16;11.13;;;2.38;;
24153;SDS011;12312;53.362;-1.518;2023-01-05T05:41:42;8.88;;;2.53;;
24153;SDS011;12312;53.362;-1.518;2023-01-05T05:44:07;13.68;;;2.33;;
24153;SDS011;12312;53.362;-1.518;2023-01-05T05:46:33;13.43;;;2.45;;
24153;SDS011;12312;53.362;-1.518;2023-01-05T05:48:59;16.92;;;3.13;;
24153;SDS011;12312;53.362;-1.518;2023-01-05T05:51:25;18.50;;;3.35;;
24153;SDS011;12312;53.362;-1.518;2023-01-05T05:53:51;20.27;;;3.03;;
24153;SDS011;12312;53.362;-1.518;2023-01-05T05:56:18;17.33;;;2.38;;
24153;SDS011;12312;53.362;-1.518;2023-01-05T05:58:44;12.98;;;2.90;;
24153;SDS011;12312;53.362;-1.518;2023-01-05T06:01:09;15.65;;;2.58;;
24153;SDS011;12312;53.362;-1.518;2023-01-05T06:03:36;12.43;;;2.13;;
24153;SDS011;12312;53.362;-1.518;2023-01-05T06:06:02;10.02;;;2.50;;
24153;SDS011;12312;53.362;-1.518;2023-01-05T06:08:28;11.65;;;2.20;;
24153;SDS011;12312;53.362;-1.518;2023-01-05T06:10:55;14.50;;;2.40;;
24153;SDS011;12312;53.362;-1.518;2023-01-05T06:13:22;13.95;;;2.60;;
24153;SDS011;12312;53.362;-1.518;2023-01-05T06:15:48;9.75;;;1.90;;
24153;SDS011;12312;53.362;-1.518;2023-01-05T06:18:17;16.63;;;2.63;;
24153;SDS011;12312;53.362;-1.518;2023-01-05T06:20:43;13.40;;;2.28;;
24153;SDS011;12312;53.362;-1.518;2023-01-05T06:23:08;11.65;;;2.30;;
24153;SDS011;12312;53.362;-1.518;2023-01-05T06:25:34;11.50;;;2.60;;
24153;SDS011;12312;53.362;-1.518;2023-01-05T06:28:05;13.18;;;2.45;;
24153;SDS011;12312;53.362;-1.518;2023-01-05T06:30:30;9.55;;;2.03;;
24153;SDS011;12312;53.362;-1.518;2023-01-05T06:32:56;16.80;;;2.50;;
24153;SDS011;12312;53.362;-1.518;2023-01-05T06:35:22;15.32;;;3.08;;
24153;SDS011;12312;53.362;-1.518;2023-01-05T06:37:48;16.10;;;3.22;;
24153;SDS011;12312;53.362;-1.518;2023-01-05T06:40:13;14.13;;;2.45;;
24153;SDS011;12312;53.362;-1.518;2023-01-05T06:42:40;15.00;;;2.40;;
24153;SDS011;12312;53.362;-1.518;2023-01-05T06:45:07;12.80;;;2.40;;
24153;SDS011;12312;53.362;-1.518;2023-01-05T06:47:36;22.20;;;2.63;;
24153;SDS011;12312;53.362;-1.518;2023-01-05T06:50:01;16.92;;;2.05;;
24153;SDS011;12312;53.362;-1.518;2023-01-05T06:52:27;14.80;;;1.95;;
24153;SDS011;12312;53.362;-1.518;2023-01-05T06:54:53;13.13;;;2.72;;
24153;SDS011;12312;53.362;-1.518;2023-01-05T06:57:18;17.48;;;2.63;;
24153;SDS011;12312;53.362;-1.518;2023-01-05T06:59:44;16.55;;;2.22;;
24153;SDS011;12312;53.362;-1.518;2023-01-05T07:02:13;18.15;;;2.28;;
24153;SDS011;12312;53.362;-1.518;2023-01-05T07:04:40;17.92;;;2.20;;
24153;SDS011;12312;53.362;-1.518;2023-01-05T07:07:05;16.33;;;2.05;;
24153;SDS011;12312;53.362;-1.518;2023-01-05T07:09:31;16.17;;;2.28;;
24153;SDS011;12312;53.362;-1.518;2023-01-05T07:11:56;20.25;;;2.63;;
24153;SDS011;12312;53.362;-1.518;2023-01-05T07:14:22;14.90;;;2.35;;
24153;SDS011;12312;53.362;-1.518;2023-01-05T07:16:48;12.88;;;2.13;;
24153;SDS011;12312;53.362;-1.518;2023-01-05T07:19:14;12.98;;;2.20;;
24153;SDS011;12312;53.362;-1.518;2023-01-05T07:21:40;17.30;;;2.33;;
24153;SDS011;12312;53.362;-1.518;2023-01-05T07:24:06;14.02;;;2.33;;
24153;SDS011;12312;53.362;-1.518;2023-01-05T07:26:32;15.98;;;2.40;;
24153;SDS011;12312;53.362;-1.518;2023-01-05T07:28:57;16.35;;;2.80;;
24153;SDS011;12312;53.362;-1.518;2023-01-05T07:31:25;11.77;;;2.63;;
24153;SDS011;12312;53.362;-1.518;2023-01-05T07:33:50;13.77;;;2.35;;
24153;SDS011;12312;53.362;-1.518;2023-01-05T07:36:16;10.18;;;2.10;;
24153;SDS011;12312;53.362;-1.518;2023-01-05T07:38:42;16.65;;;2.00;;
24153;SDS011;12312;53.362;-1.518;2023-01-05T07:41:09;12.15;;;2.30;;
24153;SDS011;12312;53.362;-1.518;2023-01-05T07:43:34;15.52;;;2.42;;
24153;SDS011;12312;53.362;-1.518;2023-01-05T07:46:00;20.75;;;3.17;;
24153;SDS011;12312;53.362;-1.518;2023-01-05T07:48:28;17.58;;;2.42;;
24153;SDS011;12312;53.362;-1.518;2023-01-05T07:51:00;23.83;;;3.53;;
24153;SDS011;12312;53.362;-1.518;2023-01-05T07:53:28;16.90;;;3.22;;
24153;SDS011;12312;53.362;-1.518;2023-01-05T07:55:58;15.48;;;2.70;;
24153;SDS011;12312;53.362;-1.518;2023-01-05T07:58:26;15.68;;;3.20;;
24153;SDS011;12312;53.362;-1.518;2023-01-05T08:00:52;23.33;;;3.67;;
24153;SDS011;12312;53.362;-1.518;2023-01-05T08:03:18;21.20;;;4.15;;
24153;SDS011;12312;53.362;-1.518;2023-01-05T08:05:44;19.92;;;3.03;;
24153;SDS011;12312;53.362;-1.518;2023-01-05T08:08:10;28.95;;;3.97;;
24153;SDS011;12312;53.362;-1.518;2023-01-05T08:10:38;26.92;;;4.40;;
24153;SDS011;12312;53.362;-1.518;2023-01-05T08:13:05;35.63;;;4.35;;
24153;SDS011;12312;53.362;-1.518;2023-01-05T08:18:18;31.38;;;4.47;;
24153;SDS011;12312;53.362;-1.518;2023-01-05T08:20:55;24.80;;;4.68;;
24153;SDS011;12312;53.362;-1.518;2023-01-05T08:23:25;23.58;;;4.65;;
24153;SDS011;12312;53.362;-1.518;2023-01-05T08:25:52;27.92;;;4.47;;
24153;SDS011;12312;53.362;-1.518;2023-01-05T08:28:19;30.83;;;3.90;;
24153;SDS011;12312;53.362;-1.518;2023-01-05T08:30:45;33.22;;;4.82;;
24153;SDS011;12312;53.362;-1.518;2023-01-05T08:33:12;24.60;;;4.97;;
24153;SDS011;12312;53.362;-1.518;2023-01-05T08:35:41;26.70;;;3.92;;
24153;SDS011;12312;53.362;-1.518;2023-01-05T08:38:09;27.20;;;4.40;;
24153;SDS011;12312;53.362;-1.518;2023-01-05T08:40:37;26.80;;;4.07;;
24153;SDS011;12312;53.362;-1.518;2023-01-05T08:43:03;33.85;;;4.53;;
24153;SDS011;12312;53.362;-1.518;2023-01-05T08:45:31;24.10;;;4.20;;
24153;SDS011;12312;53.362;-1.518;2023-01-05T08:48:00;27.20;;;4.20;;
24153;SDS011;12312;53.362;-1.518;2023-01-05T08:50:26;28.63;;;4.57;;
24153;SDS011;12312;53.362;-1.518;2023-01-05T08:52:51;26.90;;;3.90;;
24153;SDS011;12312;53.362;-1.518;2023-01-05T08:55:18;28.73;;;4.80;;
24153;SDS011;12312;53.362;-1.518;2023-01-05T08:57:44;20.98;;;4.32;;
24153;SDS011;12312;53.362;-1.518;2023-01-05T09:00:10;25.35;;;4.38;;
24153;SDS011;12312;53.362;-1.518;2023-01-05T09:02:37;28.33;;;4.65;;
24153;SDS011;12312;53.362;-1.518;2023-01-05T09:05:03;26.67;;;5.00;;
24153;SDS011;12312;53.362;-1.518;2023-01-05T09:07:29;33.28;;;5.00;;
24153;SDS011;12312;53.362;-1.518;2023-01-05T09:09:55;38.63;;;6.80;;
24153;SDS011;12312;53.362;-1.518;2023-01-05T09:12:21;26.92;;;5.95;;
24153;SDS011;12312;53.362;-1.518;2023-01-05T09:14:48;37.30;;;6.03;;
24153;SDS011;12312;53.362;-1.518;2023-01-05T09:17:13;36.55;;;6.32;;
24153;SDS011;12312;53.362;-1.518;2023-01-05T09:19:39;49.22;;;8.38;;
24153;SDS011;12312;53.362;-1.518;2023-01-05T09:22:05;35.38;;;7.07;;
24153;SDS011;12312;53.362;-1.518;2023-01-05T09:24:34;47.30;;;8.50;;
24153;SDS011;12312;53.362;-1.518;2023-01-05T09:27:00;35.83;;;7.40;;
24153;SDS011;12312;53.362;-1.518;2023-01-05T09:29:26;33.83;;;7.40;;
24153;SDS011;12312;53.362;-1.518;2023-01-05T09:31:51;27.38;;;6.75;;
24153;SDS011;12312;53.362;-1.518;2023-01-05T09:34:17;42.75;;;7.20;;
24153;SDS011;12312;53.362;-1.518;2023-01-05T09:36:43;36.45;;;7.53;;
24153;SDS011;12312;53.362;-1.518;2023-01-05T09:39:08;26.35;;;6.40;;
24153;SDS011;12312;53.362;-1.518;2023-01-05T09:46:53;32.97;;;7.55;;
24153;SDS011;12312;53.362;-1.518;2023-01-05T09:49:21;32.03;;;6.10;;
24153;SDS011;12312;53.362;-1.518;2023-01-05T09:51:50;24.38;;;6.22;;
24153;SDS011;12312;53.362;-1.518;2023-01-05T09:54:33;25.33;;;7.78;;
24153;SDS011;12312;53.362;-1.518;2023-01-05T09:57:00;34.92;;;7.65;;
24153;SDS011;12312;53.362;-1.518;2023-01-05T09:59:32;37.05;;;9.68;;
24153;SDS011;12312;53.362;-1.518;2023-01-05T10:02:02;43.30;;;10.50;;
24153;SDS011;12312;53.362;-1.518;2023-01-05T10:04:37;37.63;;;9.68;;
24153;SDS011;12312;53.362;-1.518;2023-01-05T10:07:04;34.45;;;11.30;;
24153;SDS011;12312;53.362;-1.518;2023-01-05T10:09:35;39.65;;;11.45;;
24153;SDS011;12312;53.362;-1.518;2023-01-05T10:14:55;46.13;;;17.15;;
24153;SDS011;12312;53.362;-1.518;2023-01-05T10:17:25;23.25;;;8.30;;
24153;SDS011;12312;53.362;-1.518;2023-01-05T10:19:55;48.33;;;12.15;;
24153;SDS011;12312;53.362;-1.518;2023-01-05T10:25:18;23.35;;;8.02;;
24153;SDS011;12312;53.362;-1.518;2023-01-05T10:44:04;24.88;;;9.18;;
24153;SDS011;12312;53.362;-1.518;2023-01-05T10:46:32;25.80;;;8.95;;
24153;SDS011;12312;53.362;-1.518;2023-01-05T10:49:03;32.53;;;9.52;;
24153;SDS011;12312;53.362;-1.518;2023-01-05T10:51:33;31.80;;;9.38;;
24153;SDS011;12312;53.362;-1.518;2023-01-05T10:54:01;32.53;;;9.45;;
24153;SDS011;12312;53.362;-1.518;2023-01-05T10:56:27;28.67;;;10.23;;
24153;SDS011;12312;53.362;-1.518;2023-01-05T10:59:11;24.58;;;9.15;;
24153;SDS011;12312;53.362;-1.518;2023-01-05T11:04:14;28.23;;;9.02;;
24153;SDS011;12312;53.362;-1.518;2023-01-05T11:06:44;32.75;;;9.32;;
24153;SDS011;12312;53.362;-1.518;2023-01-05T11:14:19;37.78;;;9.80;;
24153;SDS011;12312;53.362;-1.518;2023-01-05T11:16:49;44.28;;;11.82;;
24153;SDS011;12312;53.362;-1.518;2023-01-05T11:19:25;43.97;;;11.52;;
24153;SDS011;12312;53.362;-1.518;2023-01-05T11:21:55;36.00;;;12.13;;
24153;SDS011;12312;53.362;-1.518;2023-01-05T11:26:51;40.00;;;11.48;;
24153;SDS011;12312;53.362;-1.518;2023-01-05T11:29:29;42.75;;;11.57;;
24153;SDS011;12312;53.362;-1.518;2023-01-05T11:34:37;41.08;;;11.63;;
24153;SDS011;12312;53.362;-1.518;2023-01-05T11:39:56;43.75;;;12.20;;
24153;SDS011;12312;53.362;-1.518;2023-01-05T11:42:32;36.63;;;13.13;;
24153;SDS011;12312;53.362;-1.518;2023-01-05T11:47:48;49.15;;;13.48;;
24153;SDS011;12312;53.362;-1.518;2023-01-05T11:50:23;38.40;;;12.05;;
24153;SDS011;12312;53.362;-1.518;2023-01-05T11:52:55;43.45;;;11.88;;
24153;SDS011;12312;53.362;-1.518;2023-01-05T11:55:38;40.08;;;11.70;;
24153;SDS011;12312;53.362;-1.518;2023-01-05T12:06:33;28.02;;;10.43;;
24153;SDS011;12312;53.362;-1.518;2023-01-05T12:17:22;25.08;;;8.70;;
24153;SDS011;12312;53.362;-1.518;2023-01-05T12:34:04;22.05;;;4.28;;
24153;SDS011;12312;53.362;-1.518;2023-01-05T12:36:47;20.02;;;7.85;;
24153;SDS011;12312;53.362;-1.518;2023-01-05T12:42:20;11.80;;;3.00;;
24153;SDS011;12312;53.362;-1.518;2023-01-05T12:47:36;12.48;;;3.25;;
24153;SDS011;12312;53.362;-1.518;2023-01-05T12:50:47;13.95;;;3.40;;
24153;SDS011;12312;53.362;-1.518;2023-01-05T12:53:22;16.30;;;3.65;;
24153;SDS011;12312;53.362;-1.518;2023-01-05T12:58:42;16.05;;;3.15;;
24153;SDS011;12312;53.362;-1.518;2023-01-05T13:01:24;15.60;;;3.08;;
24153;SDS011;12312;53.362;-1.518;2023-01-05T13:03:58;14.02;;;3.65;;
24153;SDS011;12312;53.362;-1.518;2023-01-05T13:06:30;15.35;;;2.70;;
24153;SDS011;12312;53.362;-1.518;2023-01-05T13:09:02;13.27;;;2.40;;
24153;SDS011;12312;53.362;-1.518;2023-01-05T13:11:48;16.38;;;2.42;;
24153;SDS011;12312;53.362;-1.518;2023-01-05T13:14:20;13.70;;;2.55;;
24153;SDS011;12312;53.362;-1.518;2023-01-05T13:16:54;14.02;;;2.30;;
24153;SDS011;12312;53.362;-1.518;2023-01-05T13:19:43;12.93;;;2.58;;
24153;SDS011;12312;53.362;-1.518;2023-01-05T13:22:22;13.02;;;2.55;;
24153;SDS011;12312;53.362;-1.518;2023-01-05T13:24:52;11.13;;;2.40;;
24153;SDS011;12312;53.362;-1.518;2023-01-05T13:27:26;7.40;;;2.55;;
24153;SDS011;12312;53.362;-1.518;2023-01-05T13:29:53;11.70;;;2.60;;
24153;SDS011;12312;53.362;-1.518;2023-01-05T13:49:45;15.65;;;2.95;;
24153;SDS011;12312;53.362;-1.518;2023-01-05T13:52:51;12.35;;;3.80;;
24153;SDS011;12312;53.362;-1.518;2023-01-05T13:55:27;10.52;;;3.20;;
24153;SDS011;12312;53.362;-1.518;2023-01-05T13:57:55;11.95;;;3.50;;
24153;SDS011;12312;53.362;-1.518;2023-01-05T14:03:01;11.25;;;3.03;;
24153;SDS011;12312;53.362;-1.518;2023-01-05T14:05:35;9.85;;;3.00;;
24153;SDS011;12312;53.362;-1.518;2023-01-05T14:08:45;14.00;;;4.18;;
24153;SDS011;12312;53.362;-1.518;2023-01-05T14:16:43;8.65;;;3.58;;
24153;SDS011;12312;53.362;-1.518;2023-01-05T14:27:18;8.95;;;2.92;;
24153;SDS011;12312;53.362;-1.518;2023-01-05T14:32:30;7.82;;;2.55;;
24153;SDS011;12312;53.362;-1.518;2023-01-05T14:34:59;9.65;;;2.50;;
24153;SDS011;12312;53.362;-1.518;2023-01-05T14:37:37;6.53;;;2.40;;
24153;SDS011;12312;53.362;-1.518;2023-01-05T14:40:27;5.30;;;2.05;;
24153;SDS011;12312;53.362;-1.518;2023-01-05T14:43:01;8.35;;;2.60;;
24153;SDS011;12312;53.362;-1.518;2023-01-05T14:45:33;7.90;;;2.30;;
24153;SDS011;12312;53.362;-1.518;2023-01-05T14:48:06;8.82;;;1.70;;
24153;SDS011;12312;53.362;-1.518;2023-01-05T14:50:48;8.07;;;1.90;;
24153;SDS011;12312;53.362;-1.518;2023-01-05T14:53:51;5.93;;;2.03;;
24153;SDS011;12312;53.362;-1.518;2023-01-05T14:56:21;6.18;;;1.98;;
24153;SDS011;12312;53.362;-1.518;2023-01-05T14:58:53;7.78;;;2.40;;
24153;SDS011;12312;53.362;-1.518;2023-01-05T15:01:27;5.95;;;1.73;;
24153;SDS011;12312;53.362;-1.518;2023-01-05T15:04:06;8.23;;;2.20;;
24153;SDS011;12312;53.362;-1.518;2023-01-05T15:09:17;6.03;;;1.90;;
24153;SDS011;12312;53.362;-1.518;2023-01-05T15:17:33;4.88;;;1.60;;
24153;SDS011;12312;53.362;-1.518;2023-01-05T15:31:52;8.25;;;2.00;;
24153;SDS011;12312;53.362;-1.518;2023-01-05T15:37:38;4.68;;;1.27;;
24153;SDS011;12312;53.362;-1.518;2023-01-05T15:40:06;8.20;;;1.77;;
24153;SDS011;12312;53.362;-1.518;2023-01-05T15:42:53;5.65;;;1.52;;
24153;SDS011;12312;53.362;-1.518;2023-01-05T15:48:04;6.53;;;1.50;;
24153;SDS011;12312;53.362;-1.518;2023-01-05T15:50:44;3.85;;;0.77;;
24153;SDS011;12312;53.362;-1.518;2023-01-05T15:55:51;5.32;;;1.02;;
24153;SDS011;12312;53.362;-1.518;2023-01-05T15:58:18;6.28;;;1.10;;
24153;SDS011;12312;53.362;-1.518;2023-01-05T16:00:58;3.22;;;1.20;;
24153;SDS011;12312;53.362;-1.518;2023-01-05T16:03:32;3.08;;;1.00;;
24153;SDS011;12312;53.362;-1.518;2023-01-05T16:06:00;7.13;;;1.58;;
24153;SDS011;12312;53.362;-1.518;2023-01-05T16:08:29;7.70;;;1.33;;
24153;SDS011;12312;53.362;-1.518;2023-01-05T16:10:58;5.60;;;0.98;;
24153;SDS011;12312;53.362;-1.518;2023-01-05T16:13:36;3.95;;;0.90;;
24153;SDS011;12312;53.362;-1.518;2023-01-05T16:16:27;6.18;;;1.17;;
24153;SDS011;12312;53.362;-1.518;2023-01-05T16:18:59;5.93;;;1.25;;
24153;SDS011;12312;53.362;-1.518;2023-01-05T16:21:35;3.33;;;1.15;;
24153;SDS011;12312;53.362;-1.518;2023-01-05T16:24:07;4.85;;;1.13;;
24153;SDS011;12312;53.362;-1.518;2023-01-05T16:26:47;8.02;;;1.52;;
24153;SDS011;12312;53.362;-1.518;2023-01-05T16:29:20;7.85;;;1.42;;
24153;SDS011;12312;53.362;-1.518;2023-01-05T16:32:04;3.97;;;1.55;;
24153;SDS011;12312;53.362;-1.518;2023-01-05T16:38:30;7.50;;;1.20;;
24153;SDS011;12312;53.362;-1.518;2023-01-05T16:43:18;6.70;;;1.70;;
24153;SDS011;12312;53.362;-1.518;2023-01-05T16:45:47;9.68;;;1.90;;
24153;SDS011;12312;53.362;-1.518;2023-01-05T16:51:05;15.57;;;2.00;;
24153;SDS011;12312;53.362;-1.518;2023-01-05T16:53:34;8.68;;;2.15;;
24153;SDS011;12312;53.362;-1.518;2023-01-05T16:56:17;5.60;;;1.52;;
24153;SDS011;12312;53.362;-1.518;2023-01-05T16:59:29;11.10;;;2.80;;
24153;SDS011;12312;53.362;-1.518;2023-01-05T17:02:33;10.68;;;2.90;;
24153;SDS011;12312;53.362;-1.518;2023-01-05T17:05:06;7.97;;;1.70;;
24153;SDS011;12312;53.362;-1.518;2023-01-05T17:07:33;8.88;;;1.75;;
24153;SDS011;12312;53.362;-1.518;2023-01-05T17:10:03;5.82;;;1.27;;
24153;SDS011;12312;53.362;-1.518;2023-01-05T17:12:30;4.63;;;1.75;;
24153;SDS011;12312;53.362;-1.518;2023-01-05T17:14:57;7.60;;;1.73;;
24153;SDS011;12312;53.362;-1.518;2023-01-05T17:17:26;12.63;;;1.60;;
24153;SDS011;12312;53.362;-1.518;2023-01-05T17:19:52;6.80;;;1.83;;
24153;SDS011;12312;53.362;-1.518;2023-01-05T17:22:18;11.73;;;1.92;;
24153;SDS011;12312;53.362;-1.518;2023-01-05T17:24:44;7.07;;;1.73;;
24153;SDS011;12312;53.362;-1.518;2023-01-05T17:27:10;5.28;;;1.60;;
24153;SDS011;12312;53.362;-1.518;2023-01-05T17:29:36;10.25;;;1.75;;
24153;SDS011;12312;53.362;-1.518;2023-01-05T17:32:02;6.85;;;1.60;;
24153;SDS011;12312;53.362;-1.518;2023-01-05T17:34:28;6.03;;;1.45;;
24153;SDS011;12312;53.362;-1.518;2023-01-05T17:36:59;4.15;;;1.40;;
24153;SDS011;12312;53.362;-1.518;2023-01-05T17:39:25;11.15;;;2.05;;
24153;SDS011;12312;53.362;-1.518;2023-01-05T17:41:51;7.30;;;1.60;;
24153;SDS011;12312;53.362;-1.518;2023-01-05T17:44:16;3.35;;;1.15;;
24153;SDS011;12312;53.362;-1.518;2023-01-05T17:46:43;8.02;;;1.38;;
24153;SDS011;12312;53.362;-1.518;2023-01-05T17:49:14;8.32;;;1.83;;
24153;SDS011;12312;53.362;-1.518;2023-01-05T17:51:41;2.97;;;1.25;;
24153;SDS011;12312;53.362;-1.518;2023-01-05T17:54:07;8.88;;;1.70;;
24153;SDS011;12312;53.362;-1.518;2023-01-05T17:56:33;3.97;;;1.10;;
24153;SDS011;12312;53.362;-1.518;2023-01-05T17:58:59;4.40;;;1.52;;